Terminal Aerodrome Forecast
Issued by NWS Wilmington, NC

Home | Current Version | Previous Version | Text Only | Print | Product List | Glossary On
Versions: 1 2 3 4 5 6 7 8 9 10 11 12 13 14 15
000
FTUS42 KILM 181120
TAFLBT
TAF
KLBT 181120Z 1812/1912 23006KT P6SM SCT040
     FM181800 23008KT P6SM VCTS SCT040CB
     FM190100 23009KT P6SM BKN040
     FM190700 25005KT P6SM VCSH BKN040=

USA.gov is the U.S. government's official web portal to all federal, state and local government web resources and services.